Time;durP1;ratioP1;P1;durP2;ratioP2;P2;SDS_P1;SDS_P2;PMS_P1;PMS_P2;Temp;Humidity;BMP_temperature;BMP_pressure;BME280_temperature;BME280_humidity;BME280_pressure;Samples;Min_cycle;Max_cycle;Signal;HPM_P1;HPM_P2
2023/05/27 00:00:32;;;;;;;9.77;5.70;;;13.50;99.90;;;;;;4588270;19;20391;-24
2023/05/27 00:02:25;;;;;;;11.35;6.80;;;13.50;99.90;;;;;;4588260;19;20035;-23
2023/05/27 00:03:56;;;;;;;10.40;6.27;;;13.50;99.90;;;;;;4588666;19;20014;-24
2023/05/27 00:05:27;;;;;;;7.97;4.53;;;13.50;99.90;;;;;;4588216;19;20010;-24
2023/05/27 00:06:59;;;;;;;8.25;4.43;;;13.50;99.90;;;;;;4587464;19;20014;-27
2023/05/27 00:08:31;;;;;;;10.97;5.53;;;13.50;99.90;;;;;;4586335;19;20013;-25
2023/05/27 00:10:02;;;;;;;9.02;4.90;;;13.50;99.90;;;;;;4586929;19;20015;-26
2023/05/27 00:11:35;;;;;;;10.03;4.87;;;13.50;99.90;;;;;;4586787;19;20014;-23
2023/05/27 00:13:06;;;;;;;7.72;4.88;;;13.40;99.90;;;;;;4586161;19;20018;-27
2023/05/27 00:14:38;;;;;;;;;;;13.40;99.90;;;;;;4586550;19;20010;-23
2023/05/27 00:16:09;;;;;;;11.73;7.30;;;13.40;99.90;;;;;;4586474;19;19915;-23
2023/05/27 00:17:42;;;;;;;8.05;5.10;;;13.40;99.90;;;;;;4588390;19;20456;-24
2023/05/27 00:19:13;;;;;;;7.77;4.13;;;13.40;99.90;;;;;;4587942;19;20010;-23
2023/05/27 00:20:45;;;;;;;9.05;3.88;;;13.40;99.90;;;;;;4587559;19;20010;-23
2023/05/27 00:22:18;;;;;;;6.23;3.63;;;13.30;99.90;;;;;;4587676;19;20027;-24
2023/05/27 00:23:51;;;;;;;8.43;4.67;;;13.40;99.90;;;;;;4586051;19;20472;-23
2023/05/27 00:25:24;;;;;;;10.30;4.73;;;13.30;99.90;;;;;;4586633;19;20098;-23
2023/05/27 00:26:55;;;;;;;11.10;5.82;;;13.30;99.90;;;;;;4586172;19;20010;-27
2023/05/27 00:28:28;;;;;;;8.50;5.20;;;13.30;99.90;;;;;;4588077;19;20007;-28
2023/05/27 00:30:00;;;;;;;11.03;5.10;;;13.30;99.90;;;;;;4590252;19;20007;-23
2023/05/27 00:31:32;;;;;;;12.70;5.80;;;13.30;99.90;;;;;;4594213;19;20465;-23
2023/05/27 00:33:05;;;;;;;12.33;6.87;;;13.30;99.90;;;;;;4594351;19;20066;-27
2023/05/27 00:34:36;;;;;;;;;;;13.30;99.90;;;;;;4595219;19;20503;-26
2023/05/27 00:36:08;;;;;;;18.55;9.30;;;13.20;99.90;;;;;;4593300;19;19923;-27
2023/05/27 00:37:40;;;;;;;14.38;7.30;;;13.20;99.90;;;;;;4593228;19;20372;-27
2023/05/27 00:39:12;;;;;;;14.77;7.63;;;13.20;99.90;;;;;;4592034;19;20073;-25
2023/05/27 00:40:44;;;;;;;21.53;10.20;;;13.20;99.90;;;;;;4592093;19;20023;-23
2023/05/27 00:42:16;;;;;;;;;;;13.20;99.90;;;;;;4592006;19;20121;-25
2023/05/27 00:43:48;;;;;;;11.82;5.20;;;13.20;99.90;;;;;;4591932;19;20313;-23
2023/05/27 00:45:19;;;;;;;;;;;13.20;99.90;;;;;;4594489;19;20025;-24
2023/05/27 00:46:50;;;;;;;9.73;5.87;;;13.20;99.90;;;;;;4593777;19;19940;-25
2023/05/27 00:48:22;;;;;;;10.45;5.85;;;13.10;99.90;;;;;;4591896;19;20015;-24
2023/05/27 00:49:53;;;;;;;8.63;4.97;;;13.10;99.90;;;;;;4592398;19;20050;-22
2023/05/27 00:51:24;;;;;;;7.43;4.38;;;13.10;99.90;;;;;;4592573;19;20011;-24
2023/05/27 00:52:55;;;;;;;8.55;4.68;;;13.10;99.90;;;;;;4592222;19;20035;-23
2023/05/27 00:54:29;;;;;;;6.20;3.60;;;13.10;99.90;;;;;;4591036;19;20011;-22
2023/05/27 00:56:01;;;;;;;7.73;4.73;;;13.10;99.90;;;;;;4591343;19;20489;-24
2023/05/27 00:57:33;;;;;;;7.88;4.72;;;13.10;99.90;;;;;;4591293;19;20511;-28
2023/05/27 00:59:05;;;;;;;8.57;4.10;;;13.10;99.90;;;;;;4594278;19;20022;-22
2023/05/27 01:00:39;;;;;;;7.85;3.90;;;13.00;99.90;;;;;;4594260;19;20017;-23
2023/05/27 01:02:10;;;;;;;7.57;3.57;;;13.00;99.90;;;;;;4593990;19;20015;-23
2023/05/27 01:03:41;;;;;;;6.32;3.80;;;13.00;99.90;;;;;;4593797;19;20086;-23
2023/05/27 01:05:14;;;;;;;;;;;13.00;99.90;;;;;;4594029;19;20024;-24
2023/05/27 01:07:01;;;;;;;6.93;3.53;;;13.00;99.90;;;;;;4591842;19;19922;-29
2023/05/27 01:08:37;;;;;;;7.53;4.13;;;13.00;99.90;;;;;;4591543;19;20010;-26
2023/05/27 01:10:15;;;;;;;8.70;5.00;;;12.90;99.90;;;;;;4591911;19;20121;-24
2023/05/27 01:11:54;;;;;;;9.90;4.97;;;12.90;99.90;;;;;;4591630;19;20015;-24
2023/05/27 01:13:38;;;;;;;7.37;3.70;;;12.90;99.90;;;;;;4591391;19;20014;-28
2023/05/27 01:15:09;;;;;;;7.07;4.00;;;12.90;99.90;;;;;;4592416;19;20023;-23
2023/05/27 01:16:43;;;;;;;5.95;4.32;;;12.90;99.90;;;;;;4590870;19;20488;-24
2023/05/27 01:18:16;;;;;;;7.30;5.07;;;12.90;99.90;;;;;;4591062;19;20021;-25
2023/05/27 01:19:48;;;;;;;9.20;4.80;;;12.90;99.90;;;;;;4590423;19;20089;-24
2023/05/27 01:21:21;;;;;;;8.40;4.72;;;12.90;99.90;;;;;;4590240;19;20050;-23
2023/05/27 01:22:53;;;;;;;6.83;4.53;;;12.90;99.90;;;;;;4593253;19;20006;-23
2023/05/27 01:24:24;;;;;;;;;;;12.80;99.90;;;;;;4592177;19;20022;-23
2023/05/27 01:25:55;;;;;;;8.70;5.47;;;12.80;99.90;;;;;;4593076;19;19926;-23
2023/05/27 01:27:27;;;;;;;8.65;5.10;;;12.90;99.90;;;;;;4592865;19;20389;-24
2023/05/27 01:28:58;;;;;;;9.55;6.05;;;12.80;99.90;;;;;;4590517;19;20003;-27
2023/05/27 01:30:30;;;;;;;10.03;5.87;;;12.90;99.90;;;;;;4591155;19;20075;-24
2023/05/27 01:32:08;;;;;;;9.87;5.43;;;12.80;99.90;;;;;;4590105;19;20017;-28
2023/05/27 01:33:41;;;;;;;7.53;4.90;;;12.80;99.90;;;;;;4589991;19;20350;-24
2023/05/27 01:35:18;;;;;;;9.07;4.93;;;12.80;99.90;;;;;;4592931;19;20489;-24
2023/05/27 01:36:54;;;;;;;10.20;5.27;;;12.80;99.90;;;;;;4593300;19;21045;-27
2023/05/27 01:38:26;;;;;;;8.50;4.80;;;12.80;99.90;;;;;;4590845;19;20014;-22
2023/05/27 01:39:58;;;;;;;10.63;6.07;;;12.80;99.90;;;;;;4590614;19;20010;-24
2023/05/27 01:41:30;;;;;;;11.33;6.47;;;12.80;99.90;;;;;;4590192;19;20028;-25
2023/05/27 01:43:03;;;;;;;9.50;5.00;;;12.80;99.90;;;;;;4590117;19;20481;-25
2023/05/27 01:44:35;;;;;;;9.98;5.72;;;12.80;99.90;;;;;;4589664;19;20074;-24
2023/05/27 01:46:06;;;;;;;8.40;5.33;;;12.80;99.90;;;;;;4589518;19;20018;-23
2023/05/27 01:47:37;;;;;;;12.38;7.07;;;12.80;99.90;;;;;;4589332;19;20013;-23
2023/05/27 01:49:09;;;;;;;11.32;6.75;;;12.80;99.90;;;;;;4587122;19;20023;-24
2023/05/27 01:50:42;;;;;;;9.17;5.77;;;12.80;99.90;;;;;;4588736;19;20007;-28
2023/05/27 01:52:13;;;;;;;7.10;5.00;;;12.90;99.90;;;;;;4591399;19;20013;-26
2023/05/27 01:53:46;;;;;;;9.70;5.03;;;12.90;99.90;;;;;;4591747;19;20086;-22
2023/05/27 01:55:17;;;;;;;7.85;5.05;;;12.90;99.90;;;;;;4590684;19;20018;-23
2023/05/27 01:56:49;;;;;;;8.17;4.73;;;12.90;99.90;;;;;;4590098;19;20483;-27
2023/05/27 01:58:21;;;;;;;;;;;12.90;99.90;;;;;;4590735;19;20081;-22
2023/05/27 01:59:52;;;;;;;10.60;5.37;;;12.90;99.90;;;;;;4589485;19;20442;-27
2023/05/27 02:01:23;;;;;;;7.75;5.10;;;12.90;99.90;;;;;;4589071;19;20011;-23
2023/05/27 02:02:55;;;;;;;;;;;12.90;99.90;;;;;;4589723;19;20022;-25
2023/05/27 02:04:26;;;;;;;9.23;4.57;;;12.90;99.90;;;;;;4588702;19;19927;-27
2023/05/27 02:05:58;;;;;;;7.75;4.70;;;12.80;99.90;;;;;;4588370;19;20097;-24
2023/05/27 02:07:29;;;;;;;7.53;4.35;;;12.80;99.90;;;;;;4590883;19;20015;-24
2023/05/27 02:09:00;;;;;;;8.15;4.70;;;12.90;99.90;;;;;;4589450;19;20018;-22
2023/05/27 02:10:33;;;;;;;7.20;4.33;;;12.90;99.90;;;;;;4592621;19;20034;-22
2023/05/27 02:12:06;;;;;;;6.78;4.32;;;12.90;99.90;;;;;;4591827;19;20015;-24
2023/05/27 02:13:37;;;;;;;7.77;4.83;;;12.80;99.90;;;;;;4591430;19;20078;-24
2023/05/27 02:15:08;;;;;;;7.07;4.75;;;12.80;99.90;;;;;;4591413;19;20036;-23
2023/05/27 02:16:40;;;;;;;7.43;4.47;;;12.80;99.90;;;;;;4591258;19;20010;-23
2023/05/27 02:18:12;;;;;;;9.35;4.20;;;12.80;99.90;;;;;;4589330;19;20014;-24
2023/05/27 02:19:44;;;;;;;8.70;4.13;;;12.80;99.90;;;;;;4589087;19;20014;-23
2023/05/27 02:21:17;;;;;;;8.53;4.80;;;12.80;99.90;;;;;;4590005;19;20018;-24
2023/05/27 02:22:50;;;;;;;8.57;5.07;;;12.80;99.90;;;;;;4592985;19;20492;-23
2023/05/27 02:24:21;;;;;;;9.48;5.28;;;12.70;99.90;;;;;;4591064;19;20021;-26
2023/05/27 02:25:53;;;;;;;7.38;4.90;;;12.80;99.90;;;;;;4592226;19;20039;-24
2023/05/27 02:27:24;;;;;;;8.73;5.57;;;12.70;99.90;;;;;;4591717;19;20010;-24
2023/05/27 02:28:55;;;;;;;9.55;5.55;;;12.70;99.90;;;;;;4589227;19;20050;-29
2023/05/27 02:30:27;;;;;;;9.85;5.93;;;12.70;99.90;;;;;;4588832;19;20019;-23
2023/05/27 02:31:59;;;;;;;9.63;5.37;;;12.70;99.90;;;;;;4589452;19;20020;-25
2023/05/27 02:33:32;;;;;;;8.37;5.17;;;12.70;99.90;;;;;;4591955;19;20010;-24
2023/05/27 02:35:04;;;;;;;8.47;5.47;;;12.70;99.90;;;;;;4591806;19;20086;-27
2023/05/27 02:36:35;;;;;;;7.60;4.47;;;12.70;99.90;;;;;;4591807;19;20010;-27
2023/05/27 02:38:08;;;;;;;7.33;5.00;;;12.70;99.90;;;;;;4590330;19;20014;-24
2023/05/27 02:39:40;;;;;;;8.30;5.20;;;12.70;99.90;;;;;;4591264;19;20010;-27
2023/05/27 02:41:13;;;;;;;7.93;5.00;;;12.70;99.90;;;;;;4591016;19;20014;-23
2023/05/27 02:42:44;;;;;;;9.63;5.53;;;12.60;99.90;;;;;;4590668;19;20011;-29
2023/05/27 02:44:16;;;;;;;9.18;5.40;;;12.60;99.90;;;;;;4590247;19;20782;-27
2023/05/27 02:45:47;;;;;;;;;;;12.60;99.90;;;;;;4590901;19;20351;-23
2023/05/27 02:47:19;;;;;;;12.67;5.97;;;12.60;99.90;;;;;;4588571;19;19918;-24
2023/05/27 02:48:50;;;;;;;9.57;5.60;;;12.60;99.90;;;;;;4591234;19;20508;-22
2023/05/27 02:50:21;;;;;;;9.80;5.88;;;12.60;99.90;;;;;;4592370;19;20044;-23
2023/05/27 02:51:53;;;;;;;11.50;7.40;;;12.60;99.90;;;;;;4590376;19;20018;-28
2023/05/27 02:53:24;;;;;;;9.93;6.53;;;12.60;99.90;;;;;;4589060;19;20014;-27
2023/05/27 02:54:56;;;;;;;;;;;12.60;99.90;;;;;;4591733;19;20357;-26
2023/05/27 02:56:27;;;;;;;9.43;5.77;;;12.60;99.90;;;;;;4590523;19;19907;-24
2023/05/27 02:57:59;;;;;;;9.57;5.43;;;12.60;99.90;;;;;;4589957;19;20096;-23
2023/05/27 02:59:30;;;;;;;9.43;5.53;;;12.60;99.90;;;;;;4589692;19;20015;-23
2023/05/27 03:01:02;;;;;;;10.90;6.47;;;12.60;99.90;;;;;;4589438;19;20330;-24
2023/05/27 03:02:34;;;;;;;8.90;5.20;;;12.60;99.90;;;;;;4589590;19;20468;-25
2023/05/27 03:04:05;;;;;;;8.55;4.75;;;12.70;99.90;;;;;;4592048;19;20018;-25
2023/05/27 03:05:37;;;;;;;8.15;5.13;;;12.70;99.90;;;;;;4591250;19;20006;-28
2023/05/27 03:07:08;;;;;;;8.43;5.25;;;12.70;99.90;;;;;;4589989;19;20017;-25
2023/05/27 03:08:40;;;;;;;8.35;5.13;;;12.70;99.90;;;;;;4590109;19;20018;-22
2023/05/27 03:10:11;;;;;;;7.82;5.00;;;12.70;99.90;;;;;;4590314;19;20388;-27
2023/05/27 03:11:42;;;;;;;8.23;5.00;;;12.70;99.90;;;;;;4589900;19;20547;-23
2023/05/27 03:13:14;;;;;;;;;;;12.70;99.90;;;;;;4590865;19;20017;-25
2023/05/27 03:14:45;;;;;;;10.33;6.00;;;12.70;99.90;;;;;;4589386;19;19907;-22
2023/05/27 03:16:19;;;;;;;10.63;6.40;;;12.70;99.90;;;;;;4589463;19;20014;-23
2023/05/27 03:17:51;;;;;;;12.87;7.13;;;12.60;99.90;;;;;;4589105;19;20018;-22
2023/05/27 03:19:23;;;;;;;10.67;6.53;;;12.60;99.90;;;;;;4591749;19;20433;-22
2023/05/27 03:20:54;;;;;;;10.70;6.20;;;12.60;99.90;;;;;;4589981;19;20431;-26
2023/05/27 03:22:26;;;;;;;10.07;6.55;;;12.60;99.90;;;;;;4590587;19;20014;-23
2023/05/27 03:23:57;;;;;;;11.15;6.88;;;12.60;99.90;;;;;;4589422;19;20054;-23
2023/05/27 03:25:29;;;;;;;12.35;6.65;;;12.70;99.90;;;;;;4590476;19;20532;-27
2023/05/27 03:27:01;;;;;;;14.98;7.05;;;12.60;99.90;;;;;;4588376;19;20010;-22
2023/05/27 03:28:34;;;;;;;12.50;7.73;;;12.70;99.90;;;;;;4587948;19;20464;-27
2023/05/27 03:30:06;;;;;;;11.60;6.93;;;12.70;99.90;;;;;;4591631;19;20022;-25
2023/05/27 03:31:37;;;;;;;;;;;12.60;99.90;;;;;;4592594;19;20350;-29
2023/05/27 03:33:08;;;;;;;10.03;5.53;;;12.70;99.90;;;;;;4590542;19;20016;-24
2023/05/27 03:34:40;;;;;;;10.00;6.13;;;12.70;99.90;;;;;;4590390;19;20011;-23
2023/05/27 03:36:11;;;;;;;9.73;6.50;;;12.70;99.90;;;;;;4590374;19;20099;-23
2023/05/27 03:37:43;;;;;;;9.60;5.68;;;12.70;99.90;;;;;;4589947;19;20018;-23
2023/05/27 03:39:14;;;;;;;7.73;4.40;;;13.00;99.90;;;;;;4589084;19;20010;-23
2023/05/27 03:40:47;;;;;;;10.23;5.87;;;13.70;99.90;;;;;;4588899;19;20021;-28
2023/05/27 03:42:18;;;;;;;10.20;4.47;;;14.30;99.90;;;;;;4588604;19;20014;-28
2023/05/27 03:43:50;;;;;;;13.47;5.90;;;14.80;99.90;;;;;;4587386;19;20027;-25
2023/05/27 03:45:22;;;;;;;10.25;5.57;;;15.20;99.90;;;;;;4590770;19;20018;-27
2023/05/27 03:46:55;;;;;;;12.68;6.18;;;15.50;99.90;;;;;;4589433;19;20014;-25
2023/05/27 03:48:27;;;;;;;12.20;6.63;;;15.80;99.90;;;;;;4589143;19;20010;-23
2023/05/27 03:49:58;;;;;;;12.40;7.35;;;16.00;99.90;;;;;;4589624;19;20017;-25
2023/05/27 03:51:29;;;;;;;11.55;5.80;;;16.20;99.90;;;;;;4589764;19;20011;-25
2023/05/27 03:53:01;;;;;;;10.70;5.13;;;16.40;99.90;;;;;;4589326;19;20054;-26
2023/05/27 03:54:33;;;;;;;7.97;4.43;;;16.60;99.90;;;;;;4589297;19;20333;-25
2023/05/27 03:56:04;;;;;;;8.60;4.00;;;16.70;99.90;;;;;;4587528;19;20075;-24
2023/05/27 03:57:37;;;;;;;8.65;4.30;;;16.80;99.90;;;;;;4587786;19;20033;-26
2023/05/27 03:59:08;;;;;;;9.68;4.45;;;16.90;99.90;;;;;;4588745;19;20014;-25
2023/05/27 04:00:41;;;;;;;12.85;5.82;;;17.00;99.90;;;;;;4590789;19;20457;-26
2023/05/27 04:02:12;;;;;;;10.35;5.75;;;17.00;99.90;;;;;;4590456;19;20078;-24
2023/05/27 04:03:44;;;;;;;10.35;5.40;;;17.10;99.90;;;;;;4590353;19;20006;-24
2023/05/27 04:05:17;;;;;;;10.30;5.50;;;17.20;99.90;;;;;;4588595;19;20071;-24
2023/05/27 04:06:49;;;;;;;10.82;4.90;;;17.20;99.90;;;;;;4589034;19;20014;-25
2023/05/27 04:08:22;;;;;;;9.98;5.13;;;17.30;99.90;;;;;;4588599;19;20029;-24
2023/05/27 04:09:53;;;;;;;10.23;4.43;;;17.40;99.90;;;;;;4588656;19;20504;-26
2023/05/27 04:11:27;;;;;;;10.48;4.47;;;17.40;99.90;;;;;;4588583;19;20381;-23
2023/05/27 04:12:59;;;;;;;7.95;4.57;;;17.50;99.90;;;;;;4586751;19;20015;-24
2023/05/27 04:14:31;;;;;;;11.77;5.63;;;17.50;99.90;;;;;;4587951;19;20030;-23
2023/05/27 04:16:03;;;;;;;8.00;4.97;;;17.60;99.90;;;;;;4590717;19;20017;-25
2023/05/27 04:17:37;;;;;;;9.38;5.45;;;16.70;99.90;;;;;;4590468;19;20003;-26
2023/05/27 04:19:09;;;;;;;8.93;5.07;;;15.20;99.90;;;;;;4588056;19;20044;-24
2023/05/27 04:20:42;;;;;;;6.95;5.18;;;14.40;99.90;;;;;;4590592;19;20015;-27
2023/05/27 04:22:13;;;;;;;9.13;5.35;;;13.90;99.90;;;;;;4589309;19;20472;-24
2023/05/27 04:23:45;;;;;;;10.63;6.80;;;13.70;99.90;;;;;;4589226;19;20469;-24
2023/05/27 04:25:16;;;;;;;11.05;6.10;;;13.60;99.90;;;;;;4585849;19;20022;-23
2023/05/27 04:26:48;;;;;;;8.35;5.13;;;13.50;99.90;;;;;;4588348;19;20429;-22
2023/05/27 04:28:20;;;;;;;9.20;5.45;;;13.40;99.90;;;;;;4590091;19;20011;-28
2023/05/27 04:29:51;;;;;;;9.87;5.60;;;13.40;99.90;;;;;;4590088;19;20018;-24
2023/05/27 04:31:22;;;;;;;10.30;5.00;;;13.40;99.90;;;;;;4589515;19;20477;-27
2023/05/27 04:32:54;;;;;;;9.20;5.68;;;13.30;99.90;;;;;;4587979;19;20014;-23
2023/05/27 04:34:26;;;;;;;8.47;5.57;;;13.30;99.90;;;;;;4588698;19;20018;-22
2023/05/27 04:35:59;;;;;;;9.20;5.60;;;13.30;99.90;;;;;;4588700;19;20081;-23
2023/05/27 04:37:30;;;;;;;8.75;5.10;;;13.30;99.90;;;;;;4587106;19;20010;-26
2023/05/27 04:39:02;;;;;;;7.03;4.80;;;13.30;99.90;;;;;;4587234;19;20480;-24
2023/05/27 04:40:34;;;;;;;9.27;5.32;;;13.30;99.90;;;;;;4588112;19;20025;-27
2023/05/27 04:42:05;;;;;;;11.37;6.17;;;13.30;99.90;;;;;;4590350;19;20083;-23
2023/05/27 04:43:36;;;;;;;;;;;13.30;99.90;;;;;;4590906;19;20018;-27
2023/05/27 04:45:10;;;;;;;9.13;5.13;;;13.30;99.90;;;;;;4588355;19;20000;-24
2023/05/27 04:46:43;;;;;;;8.33;5.50;;;13.30;99.90;;;;;;4589025;19;20427;-23
2023/05/27 04:48:15;;;;;;;9.23;4.90;;;13.40;99.90;;;;;;4588405;19;20357;-26
2023/05/27 04:49:46;;;;;;;;;;;13.30;99.90;;;;;;4589651;19;20011;-28
2023/05/27 04:51:18;;;;;;;9.63;5.55;;;13.40;99.90;;;;;;4588685;19;19940;-24
2023/05/27 04:52:50;;;;;;;8.83;5.10;;;13.40;99.90;;;;;;4587962;19;20018;-23
2023/05/27 04:54:22;;;;;;;8.00;5.22;;;13.40;99.90;;;;;;4587501;19;20006;-22
2023/05/27 04:55:53;;;;;;;9.40;5.30;;;13.40;99.90;;;;;;4587568;19;20019;-24
2023/05/27 04:57:26;;;;;;;8.57;5.20;;;13.40;99.90;;;;;;4587608;19;20007;-28
2023/05/27 04:58:58;;;;;;;8.70;5.23;;;13.40;99.90;;;;;;4589731;19;20019;-24
2023/05/27 05:00:38;;;;;;;9.30;5.47;;;13.40;99.90;;;;;;4589302;19;20021;-24
2023/05/27 05:02:10;;;;;;;9.10;5.47;;;13.40;99.90;;;;;;4589250;19;20101;-27
2023/05/27 05:03:52;;;;;;;9.00;5.13;;;13.40;99.90;;;;;;4589043;19;20021;-24
2023/05/27 05:05:24;;;;;;;8.82;5.35;;;13.40;99.90;;;;;;4589424;19;20022;-26
2023/05/27 05:06:57;;;;;;;10.03;5.67;;;13.50;99.90;;;;;;4587514;19;20019;-22
2023/05/27 05:08:28;;;;;;;9.20;6.43;;;13.50;99.90;;;;;;4587476;19;20010;-23
2023/05/27 05:10:00;;;;;;;8.30;4.87;;;13.50;99.90;;;;;;4587067;19;20014;-23
2023/05/27 05:11:31;;;;;;;9.68;5.22;;;13.50;99.90;;;;;;4587372;19;20078;-23
2023/05/27 05:13:03;;;;;;;8.80;6.38;;;13.50;99.90;;;;;;4587357;19;20011;-23
2023/05/27 05:14:35;;;;;;;8.03;4.97;;;13.50;99.90;;;;;;4587182;19;20014;-24
2023/05/27 05:16:07;;;;;;;10.50;5.33;;;13.50;99.90;;;;;;4586017;19;20018;-26
2023/05/27 05:17:38;;;;;;;8.45;5.82;;;13.50;99.90;;;;;;4593379;19;20108;-23
2023/05/27 05:19:09;;;;;;;9.38;5.80;;;13.60;99.90;;;;;;4593699;19;20010;-25
2023/05/27 05:20:41;;;;;;;9.87;5.10;;;13.60;99.90;;;;;;4593545;19;20042;-27
2023/05/27 05:22:13;;;;;;;7.22;4.65;;;13.60;99.90;;;;;;4593383;19;20015;-23
2023/05/27 05:23:44;;;;;;;8.43;5.10;;;13.60;99.90;;;;;;4591606;19;20052;-25
2023/05/27 05:25:16;;;;;;;10.48;5.30;;;13.60;99.90;;;;;;4590688;19;20038;-23
2023/05/27 05:26:48;;;;;;;9.43;5.13;;;13.70;99.90;;;;;;4591600;19;20384;-27
2023/05/27 05:28:19;;;;;;;9.13;4.72;;;13.70;99.90;;;;;;4593763;19;20023;-27
2023/05/27 05:29:50;;;;;;;8.77;5.80;;;13.70;99.90;;;;;;4593341;19;20035;-25
2023/05/27 05:31:23;;;;;;;9.57;5.83;;;13.70;99.90;;;;;;4592852;19;20349;-25
2023/05/27 05:32:56;;;;;;;8.53;4.90;;;13.70;99.90;;;;;;4592707;19;20011;-23
2023/05/27 05:34:28;;;;;;;10.03;5.33;;;13.80;99.90;;;;;;4592880;19;20014;-26
2023/05/27 05:36:01;;;;;;;7.93;4.47;;;13.80;99.90;;;;;;4590797;19;20094;-28
2023/05/27 05:37:32;;;;;;;9.40;4.50;;;13.80;99.90;;;;;;4591361;19;20010;-25
2023/05/27 05:39:04;;;;;;;10.35;5.03;;;13.80;99.90;;;;;;4591345;19;20007;-26
2023/05/27 05:40:35;;;;;;;7.05;3.92;;;13.80;99.90;;;;;;4589363;19;20011;-23
2023/05/27 05:42:07;;;;;;;8.07;4.63;;;13.80;99.90;;;;;;4590715;19;20040;-29
2023/05/27 05:43:39;;;;;;;7.03;3.95;;;13.90;99.90;;;;;;4592518;19;20007;-23
2023/05/27 05:45:10;;;;;;;6.57;3.80;;;13.90;99.90;;;;;;4593163;19;20034;-25
2023/05/27 05:46:42;;;;;;;10.10;4.00;;;13.90;99.90;;;;;;4593243;19;20006;-23
2023/05/27 05:48:14;;;;;;;8.75;4.20;;;14.00;99.90;;;;;;4591901;19;20022;-23
2023/05/27 05:49:45;;;;;;;7.15;3.53;;;14.00;99.90;;;;;;4592368;19;20018;-24
2023/05/27 05:51:17;;;;;;;5.37;3.40;;;14.00;99.90;;;;;;4592351;19;20010;-21
2023/05/27 05:52:48;;;;;;;6.70;3.40;;;14.00;99.90;;;;;;4590109;19;20011;-24
2023/05/27 05:54:20;;;;;;;6.32;3.28;;;14.00;99.90;;;;;;4590322;19;20014;-26
2023/05/27 05:55:53;;;;;;;7.60;3.93;;;14.10;99.90;;;;;;4590842;19;20002;-23
2023/05/27 05:57:25;;;;;;;5.18;3.10;;;14.10;99.90;;;;;;4591056;19;20010;-25
2023/05/27 05:58:56;;;;;;;5.32;2.60;;;14.10;99.90;;;;;;4593124;19;20487;-23
2023/05/27 06:00:27;;;;;;;4.22;2.78;;;14.20;99.90;;;;;;4592812;19;20121;-24
2023/05/27 06:01:59;;;;;;;4.50;2.10;;;14.20;99.90;;;;;;4591253;19;20475;-23
2023/05/27 06:03:31;;;;;;;5.70;2.53;;;14.20;99.90;;;;;;4591497;19;20015;-23
2023/05/27 06:05:02;;;;;;;5.68;2.70;;;14.20;99.90;;;;;;4590853;19;20080;-25
2023/05/27 06:06:33;;;;;;;5.57;2.83;;;14.20;99.90;;;;;;4591260;19;20015;-24
2023/05/27 06:08:04;;;;;;;4.63;2.88;;;14.30;99.90;;;;;;4590702;19;20010;-25
2023/05/27 06:09:36;;;;;;;4.03;2.35;;;14.30;99.90;;;;;;4590590;19;20022;-26
2023/05/27 06:11:07;;;;;;;4.05;2.10;;;14.30;99.90;;;;;;4590217;19;20014;-24
2023/05/27 06:12:38;;;;;;;3.83;1.83;;;14.30;99.90;;;;;;4592889;19;20026;-24
2023/05/27 06:14:09;;;;;;;4.63;2.53;;;14.30;99.90;;;;;;4593162;19;20338;-22
2023/05/27 06:15:41;;;;;;;4.32;2.22;;;14.40;99.90;;;;;;4592267;19;20378;-23
2023/05/27 06:17:13;;;;;;;;;;;14.40;99.90;;;;;;4593031;19;20015;-26
2023/05/27 06:18:45;;;;;;;5.00;2.45;;;14.40;99.90;;;;;;4591832;19;19923;-25
2023/05/27 06:20:17;;;;;;;4.90;2.30;;;14.40;99.90;;;;;;4591098;19;20017;-23
2023/05/27 06:21:51;;;;;;;5.47;2.60;;;14.40;99.90;;;;;;4590782;19;20044;-25
2023/05/27 06:23:23;;;;;;;4.27;2.30;;;14.40;99.90;;;;;;4590019;19;20014;-24
2023/05/27 06:24:54;;;;;;;4.13;2.00;;;14.40;99.90;;;;;;4589592;19;20085;-28
2023/05/27 06:26:27;;;;;;;5.72;2.47;;;14.50;99.90;;;;;;4590235;19;20373;-26
2023/05/27 06:27:59;;;;;;;4.03;1.80;;;14.50;99.90;;;;;;4589166;19;20087;-24
2023/05/27 06:29:31;;;;;;;3.72;1.77;;;14.50;99.90;;;;;;4590737;19;20018;-28
2023/05/27 06:31:02;;;;;;;5.45;1.88;;;14.50;99.90;;;;;;4591594;19;20014;-23
2023/05/27 06:32:33;;;;;;;4.20;1.95;;;14.60;99.90;;;;;;4590724;19;20010;-24
2023/05/27 06:34:06;;;;;;;5.37;1.67;;;14.60;99.90;;;;;;4587677;19;20039;-24
2023/05/27 06:35:38;;;;;;;4.83;2.20;;;14.60;99.90;;;;;;4589062;19;20014;-23
2023/05/27 06:37:09;;;;;;;4.88;2.13;;;14.60;99.90;;;;;;4590004;19;20018;-23
2023/05/27 06:38:41;;;;;;;4.15;2.20;;;14.60;99.90;;;;;;4592535;19;20499;-23
2023/05/27 06:40:12;;;;;;;4.80;1.95;;;14.60;99.90;;;;;;4591046;19;20487;-23
2023/05/27 06:41:44;;;;;;;4.57;1.92;;;14.60;99.90;;;;;;4591275;19;20026;-26
2023/05/27 06:43:16;;;;;;;;;;;14.60;99.90;;;;;;4592545;19;20011;-27
2023/05/27 06:44:47;;;;;;;4.90;1.83;;;14.60;99.90;;;;;;4590860;19;19911;-24
2023/05/27 06:46:18;;;;;;;2.78;1.50;;;14.70;99.90;;;;;;4590619;19;20050;-23
2023/05/27 06:47:50;;;;;;;;;;;14.70;99.90;;;;;;4591824;19;20011;-24
2023/05/27 06:49:21;;;;;;;5.73;1.73;;;14.70;99.90;;;;;;4588683;19;20329;-25
2023/05/27 06:50:55;;;;;;;4.25;2.15;;;14.70;99.90;;;;;;4592065;19;20480;-24
2023/05/27 06:52:36;;;;;;;4.20;1.83;;;14.70;99.90;;;;;;4591368;19;20488;-23
2023/05/27 06:54:08;;;;;;;3.13;1.50;;;14.70;99.90;;;;;;4591362;19;20062;-27
2023/05/27 06:55:39;;;;;;;3.50;1.90;;;14.80;99.90;;;;;;4590822;19;20035;-30
2023/05/27 06:57:10;;;;;;;5.13;2.13;;;14.80;99.90;;;;;;4590425;19;20050;-25
2023/05/27 06:58:42;;;;;;;3.13;1.60;;;14.80;99.90;;;;;;4590137;19;20010;-22
2023/05/27 07:00:14;;;;;;;3.58;1.60;;;14.80;99.90;;;;;;4590223;19;20010;-26
2023/05/27 07:01:46;;;;;;;3.40;1.60;;;14.90;99.90;;;;;;4589332;19;20163;-23
2023/05/27 07:03:31;;;;;;;4.68;1.63;;;14.90;99.90;;;;;;4589416;19;20376;-22
2023/05/27 07:05:12;;;;;;;2.92;1.52;;;14.90;99.90;;;;;;4589454;19;20022;-24
2023/05/27 07:06:46;;;;;;;5.40;1.80;;;15.00;99.90;;;;;;4589644;19;20010;-27
2023/05/27 07:08:18;;;;;;;4.30;1.75;;;15.00;99.90;;;;;;4591832;19;20130;-24
2023/05/27 07:09:49;;;;;;;4.75;2.20;;;15.00;99.90;;;;;;4591558;19;20011;-27
2023/05/27 07:11:27;;;;;;;3.43;1.50;;;15.10;99.90;;;;;;4591550;19;20023;-23
2023/05/27 07:12:58;;;;;;;3.55;1.60;;;15.10;99.90;;;;;;4590959;19;20011;-27
2023/05/27 07:14:29;;;;;;;4.07;1.50;;;15.10;99.90;;;;;;4589663;19;20018;-24
2023/05/27 07:16:01;;;;;;;2.33;1.40;;;15.10;99.90;;;;;;4589012;19;20022;-24
2023/05/27 07:17:32;;;;;;;2.50;1.15;;;15.10;99.90;;;;;;4588780;19;20077;-25
2023/05/27 07:19:04;;;;;;;3.30;1.23;;;15.10;99.90;;;;;;4589576;19;20006;-24
2023/05/27 07:20:35;;;;;;;3.58;1.48;;;15.10;99.90;;;;;;4588923;19;20082;-24
2023/05/27 07:22:06;;;;;;;3.38;1.75;;;15.10;99.90;;;;;;4587616;19;20011;-22
2023/05/27 07:23:40;;;;;;;;;;;15.10;99.90;;;;;;4588696;19;20018;-24
2023/05/27 07:25:16;;;;;;;4.03;1.48;;;15.10;99.90;;;;;;4589206;19;20245;-22
2023/05/27 07:26:47;;;;;;;2.55;1.42;;;15.10;99.90;;;;;;4590745;19;20022;-23
2023/05/27 07:28:22;;;;;;;3.47;1.55;;;15.10;99.90;;;;;;4589817;19;20457;-28
2023/05/27 07:29:56;;;;;;;1.98;1.00;;;15.10;99.90;;;;;;4590017;19;20026;-23
2023/05/27 07:31:27;;;;;;;2.97;1.30;;;15.20;99.90;;;;;;4590598;19;20057;-24
2023/05/27 07:32:59;;;;;;;2.47;1.20;;;15.20;99.90;;;;;;4590482;19;20010;-24
2023/05/27 07:34:30;;;;;;;2.55;1.20;;;15.20;99.90;;;;;;4589969;19;20018;-26
2023/05/27 07:36:02;;;;;;;3.30;1.58;;;15.20;99.90;;;;;;4589181;19;20045;-23
2023/05/27 07:37:33;;;;;;;3.70;1.15;;;15.20;99.90;;;;;;4589348;19;20389;-26
2023/05/27 07:39:05;;;;;;;;;;;15.20;99.90;;;;;;4589099;19;20018;-24
2023/05/27 07:40:38;;;;;;;3.67;1.30;;;15.20;99.90;;;;;;4586949;19;19911;-26
2023/05/27 07:42:09;;;;;;;2.65;1.17;;;15.20;99.90;;;;;;4588149;19;20088;-27
2023/05/27 07:43:40;;;;;;;3.55;1.27;;;15.30;99.90;;;;;;4591081;19;20022;-28
2023/05/27 07:45:12;;;;;;;;;;;15.30;99.90;;;;;;4591868;19;20015;-28
2023/05/27 07:46:43;;;;;;;2.40;1.30;;;15.30;99.90;;;;;;4590145;19;19931;-28
2023/05/27 07:48:15;;;;;;;3.45;1.38;;;15.30;99.90;;;;;;4590176;19;20610;-27
2023/05/27 07:49:48;;;;;;;4.13;1.40;;;15.30;99.90;;;;;;4588340;19;20452;-23
2023/05/27 07:51:19;;;;;;;3.88;1.10;;;15.30;99.90;;;;;;4587741;19;20035;-26
2023/05/27 07:52:52;;;;;;;3.97;1.77;;;15.40;99.90;;;;;;4588668;19;20015;-24
2023/05/27 07:54:26;;;;;;;2.28;1.20;;;15.30;99.90;;;;;;4588978;19;20070;-22
2023/05/27 07:55:58;;;;;;;4.13;1.50;;;15.40;99.90;;;;;;4588505;19;20018;-24
2023/05/27 07:57:30;;;;;;;;;;;15.40;99.90;;;;;;4589066;19;20018;-23
2023/05/27 07:59:01;;;;;;;2.53;1.20;;;15.40;99.90;;;;;;4591031;19;20358;-26
2023/05/27 08:00:34;;;;;;;3.25;1.27;;;15.40;99.90;;;;;;4591134;19;20021;-23
2023/05/27 08:02:10;;;;;;;2.60;1.50;;;15.40;99.90;;;;;;4589197;19;20022;-26